sensor_id;sensor_type;location;lat;lon;timestamp;P1;durP1;ratioP1;P2;durP2;ratioP2
70825;SDS011;58446;41.490;22.098;2023-03-16T00:02:01;12.18;;;6.13;;
70825;SDS011;58446;41.490;22.098;2023-03-16T00:04:28;7.10;;;3.97;;
70825;SDS011;58446;41.490;22.098;2023-03-16T00:06:54;8.75;;;4.70;;
70825;SDS011;58446;41.490;22.098;2023-03-16T00:09:20;12.25;;;6.35;;
70825;SDS011;58446;41.490;22.098;2023-03-16T00:11:46;10.20;;;5.47;;
70825;SDS011;58446;41.490;22.098;2023-03-16T00:14:12;10.40;;;4.83;;
70825;SDS011;58446;41.490;22.098;2023-03-16T00:16:38;6.80;;;3.20;;
70825;SDS011;58446;41.490;22.098;2023-03-16T00:19:03;7.80;;;3.70;;
70825;SDS011;58446;41.490;22.098;2023-03-16T00:21:30;5.10;;;2.65;;
70825;SDS011;58446;41.490;22.098;2023-03-16T00:23:56;7.18;;;3.33;;
70825;SDS011;58446;41.490;22.098;2023-03-16T00:26:22;6.57;;;2.27;;
70825;SDS011;58446;41.490;22.098;2023-03-16T00:28:49;5.25;;;1.92;;
70825;SDS011;58446;41.490;22.098;2023-03-16T00:31:18;4.90;;;2.95;;
70825;SDS011;58446;41.490;22.098;2023-03-16T00:33:44;4.50;;;2.40;;
70825;SDS011;58446;41.490;22.098;2023-03-16T00:36:10;4.50;;;2.60;;
70825;SDS011;58446;41.490;22.098;2023-03-16T00:38:37;5.05;;;2.47;;
70825;SDS011;58446;41.490;22.098;2023-03-16T00:41:05;4.22;;;2.33;;
70825;SDS011;58446;41.490;22.098;2023-03-16T00:43:33;4.20;;;1.67;;
70825;SDS011;58446;41.490;22.098;2023-03-16T00:46:07;4.80;;;2.60;;
70825;SDS011;58446;41.490;22.098;2023-03-16T00:48:37;4.43;;;2.30;;
70825;SDS011;58446;41.490;22.098;2023-03-16T00:51:05;3.85;;;2.05;;
70825;SDS011;58446;41.490;22.098;2023-03-16T00:53:33;4.50;;;2.70;;
70825;SDS011;58446;41.490;22.098;2023-03-16T00:56:00;4.97;;;2.33;;
70825;SDS011;58446;41.490;22.098;2023-03-16T00:58:30;4.20;;;2.45;;
70825;SDS011;58446;41.490;22.098;2023-03-16T01:01:03;4.43;;;2.33;;
70825;SDS011;58446;41.490;22.098;2023-03-16T01:03:30;4.20;;;2.45;;
70825;SDS011;58446;41.490;22.098;2023-03-16T01:05:56;4.47;;;2.53;;
70825;SDS011;58446;41.490;22.098;2023-03-16T01:08:25;4.18;;;2.45;;
70825;SDS011;58446;41.490;22.098;2023-03-16T01:10:54;4.25;;;2.60;;
70825;SDS011;58446;41.490;22.098;2023-03-16T01:13:20;4.30;;;2.37;;
70825;SDS011;58446;41.490;22.098;2023-03-16T01:15:48;4.30;;;2.58;;
70825;SDS011;58446;41.490;22.098;2023-03-16T01:18:15;5.25;;;2.80;;
70825;SDS011;58446;41.490;22.098;2023-03-16T01:20:41;5.03;;;2.33;;
70825;SDS011;58446;41.490;22.098;2023-03-16T01:23:14;4.15;;;2.63;;
70825;SDS011;58446;41.490;22.098;2023-03-16T01:25:41;4.20;;;2.40;;
70825;SDS011;58446;41.490;22.098;2023-03-16T01:28:07;4.20;;;2.70;;
70825;SDS011;58446;41.490;22.098;2023-03-16T01:30:32;4.33;;;2.40;;
70825;SDS011;58446;41.490;22.098;2023-03-16T01:32:59;4.00;;;2.35;;
70825;SDS011;58446;41.490;22.098;2023-03-16T01:35:25;5.80;;;2.58;;
70825;SDS011;58446;41.490;22.098;2023-03-16T01:37:51;4.10;;;2.00;;
70825;SDS011;58446;41.490;22.098;2023-03-16T01:40:17;4.20;;;2.33;;
70825;SDS011;58446;41.490;22.098;2023-03-16T01:42:44;4.43;;;2.70;;
70825;SDS011;58446;41.490;22.098;2023-03-16T01:48:17;3.72;;;1.80;;
70825;SDS011;58446;41.490;22.098;2023-03-16T01:50:44;4.20;;;2.55;;
70825;SDS011;58446;41.490;22.098;2023-03-16T01:53:10;4.00;;;2.17;;
70825;SDS011;58446;41.490;22.098;2023-03-16T01:55:36;4.40;;;2.77;;
70825;SDS011;58446;41.490;22.098;2023-03-16T01:58:02;4.45;;;2.53;;
70825;SDS011;58446;41.490;22.098;2023-03-16T02:00:28;4.32;;;2.60;;
70825;SDS011;58446;41.490;22.098;2023-03-16T02:03:04;4.20;;;2.43;;
70825;SDS011;58446;41.490;22.098;2023-03-16T02:05:36;4.32;;;2.75;;
70825;SDS011;58446;41.490;22.098;2023-03-16T02:08:06;4.28;;;2.45;;
70825;SDS011;58446;41.490;22.098;2023-03-16T02:10:34;4.30;;;2.20;;
70825;SDS011;58446;41.490;22.098;2023-03-16T02:13:00;4.40;;;2.55;;
70825;SDS011;58446;41.490;22.098;2023-03-16T02:15:27;4.00;;;2.03;;
70825;SDS011;58446;41.490;22.098;2023-03-16T02:17:53;4.20;;;2.42;;
70825;SDS011;58446;41.490;22.098;2023-03-16T02:22:53;4.13;;;2.25;;
70825;SDS011;58446;41.490;22.098;2023-03-16T02:25:23;4.15;;;2.53;;
70825;SDS011;58446;41.490;22.098;2023-03-16T02:30:27;4.72;;;2.70;;
70825;SDS011;58446;41.490;22.098;2023-03-16T02:32:54;5.57;;;3.20;;
70825;SDS011;58446;41.490;22.098;2023-03-16T02:35:19;4.40;;;2.80;;
70825;SDS011;58446;41.490;22.098;2023-03-16T02:37:46;4.22;;;2.38;;
70825;SDS011;58446;41.490;22.098;2023-03-16T02:40:25;4.68;;;2.05;;
70825;SDS011;58446;41.490;22.098;2023-03-16T02:43:01;4.95;;;2.80;;
70825;SDS011;58446;41.490;22.098;2023-03-16T02:45:42;4.00;;;2.40;;
70825;SDS011;58446;41.490;22.098;2023-03-16T02:48:20;4.80;;;2.65;;
70825;SDS011;58446;41.490;22.098;2023-03-16T02:50:50;4.50;;;2.78;;
70825;SDS011;58446;41.490;22.098;2023-03-16T02:53:17;5.65;;;2.20;;
70825;SDS011;58446;41.490;22.098;2023-03-16T02:55:43;4.20;;;2.30;;
70825;SDS011;58446;41.490;22.098;2023-03-16T02:58:10;4.50;;;3.00;;
70825;SDS011;58446;41.490;22.098;2023-03-16T03:00:37;4.55;;;2.80;;
70825;SDS011;58446;41.490;22.098;2023-03-16T03:03:03;4.10;;;2.20;;
70825;SDS011;58446;41.490;22.098;2023-03-16T03:05:30;5.22;;;2.67;;
70825;SDS011;58446;41.490;22.098;2023-03-16T03:07:55;4.97;;;3.37;;
70825;SDS011;58446;41.490;22.098;2023-03-16T03:10:21;4.65;;;2.47;;
70825;SDS011;58446;41.490;22.098;2023-03-16T03:12:47;5.57;;;3.22;;
70825;SDS011;58446;41.490;22.098;2023-03-16T03:15:14;4.70;;;2.43;;
70825;SDS011;58446;41.490;22.098;2023-03-16T03:17:40;4.70;;;2.83;;
70825;SDS011;58446;41.490;22.098;2023-03-16T03:20:07;5.53;;;3.42;;
70825;SDS011;58446;41.490;22.098;2023-03-16T03:22:42;4.97;;;3.10;;
70825;SDS011;58446;41.490;22.098;2023-03-16T03:25:09;5.05;;;3.30;;
70825;SDS011;58446;41.490;22.098;2023-03-16T03:27:36;13.57;;;6.17;;
70825;SDS011;58446;41.490;22.098;2023-03-16T03:30:03;8.43;;;4.38;;
70825;SDS011;58446;41.490;22.098;2023-03-16T03:32:28;7.35;;;4.30;;
70825;SDS011;58446;41.490;22.098;2023-03-16T03:34:54;6.73;;;4.03;;
70825;SDS011;58446;41.490;22.098;2023-03-16T03:37:20;6.75;;;4.55;;
70825;SDS011;58446;41.490;22.098;2023-03-16T03:39:45;7.10;;;4.53;;
70825;SDS011;58446;41.490;22.098;2023-03-16T03:42:12;7.10;;;4.70;;
70825;SDS011;58446;41.490;22.098;2023-03-16T03:44:38;6.05;;;3.80;;
70825;SDS011;58446;41.490;22.098;2023-03-16T03:47:03;6.00;;;3.17;;
70825;SDS011;58446;41.490;22.098;2023-03-16T03:49:30;5.60;;;3.80;;
70825;SDS011;58446;41.490;22.098;2023-03-16T03:51:55;5.10;;;3.05;;
70825;SDS011;58446;41.490;22.098;2023-03-16T03:54:23;5.90;;;3.40;;
70825;SDS011;58446;41.490;22.098;2023-03-16T03:56:50;4.50;;;2.50;;
70825;SDS011;58446;41.490;22.098;2023-03-16T03:59:16;4.70;;;3.03;;
70825;SDS011;58446;41.490;22.098;2023-03-16T04:01:42;4.60;;;2.83;;
70825;SDS011;58446;41.490;22.098;2023-03-16T04:04:07;4.43;;;2.43;;
70825;SDS011;58446;41.490;22.098;2023-03-16T04:06:33;4.65;;;2.60;;
70825;SDS011;58446;41.490;22.098;2023-03-16T04:08:59;4.40;;;2.60;;
70825;SDS011;58446;41.490;22.098;2023-03-16T04:11:25;6.90;;;4.93;;
70825;SDS011;58446;41.490;22.098;2023-03-16T04:13:50;7.33;;;4.20;;
70825;SDS011;58446;41.490;22.098;2023-03-16T04:16:17;4.60;;;2.47;;
70825;SDS011;58446;41.490;22.098;2023-03-16T04:18:43;4.90;;;3.30;;
70825;SDS011;58446;41.490;22.098;2023-03-16T04:21:16;5.07;;;3.45;;
70825;SDS011;58446;41.490;22.098;2023-03-16T04:23:42;5.03;;;3.03;;
70825;SDS011;58446;41.490;22.098;2023-03-16T04:26:08;8.55;;;4.70;;
70825;SDS011;58446;41.490;22.098;2023-03-16T04:28:34;6.30;;;4.43;;
70825;SDS011;58446;41.490;22.098;2023-03-16T04:31:04;4.40;;;2.42;;
70825;SDS011;58446;41.490;22.098;2023-03-16T04:33:31;4.47;;;2.93;;
70825;SDS011;58446;41.490;22.098;2023-03-16T04:35:58;4.50;;;2.45;;
70825;SDS011;58446;41.490;22.098;2023-03-16T04:38:24;4.40;;;2.67;;
70825;SDS011;58446;41.490;22.098;2023-03-16T04:40:50;4.60;;;3.20;;
70825;SDS011;58446;41.490;22.098;2023-03-16T04:43:16;4.50;;;2.73;;
70825;SDS011;58446;41.490;22.098;2023-03-16T04:45:41;4.00;;;2.00;;
70825;SDS011;58446;41.490;22.098;2023-03-16T04:48:07;4.33;;;2.53;;
70825;SDS011;58446;41.490;22.098;2023-03-16T04:50:34;4.63;;;2.90;;
70825;SDS011;58446;41.490;22.098;2023-03-16T04:53:00;4.78;;;3.25;;
70825;SDS011;58446;41.490;22.098;2023-03-16T04:55:25;4.07;;;2.43;;
70825;SDS011;58446;41.490;22.098;2023-03-16T04:57:51;4.82;;;2.85;;
70825;SDS011;58446;41.490;22.098;2023-03-16T05:00:17;4.30;;;2.60;;
70825;SDS011;58446;41.490;22.098;2023-03-16T05:02:45;4.15;;;2.50;;
70825;SDS011;58446;41.490;22.098;2023-03-16T05:05:11;5.22;;;3.10;;
70825;SDS011;58446;41.490;22.098;2023-03-16T05:07:37;4.03;;;2.17;;
70825;SDS011;58446;41.490;22.098;2023-03-16T05:10:06;4.40;;;2.60;;
70825;SDS011;58446;41.490;22.098;2023-03-16T05:12:35;6.07;;;2.88;;
70825;SDS011;58446;41.490;22.098;2023-03-16T05:15:01;4.07;;;1.93;;
70825;SDS011;58446;41.490;22.098;2023-03-16T05:17:27;4.80;;;2.58;;
70825;SDS011;58446;41.490;22.098;2023-03-16T05:19:52;4.13;;;2.13;;
70825;SDS011;58446;41.490;22.098;2023-03-16T05:22:18;4.22;;;2.47;;
70825;SDS011;58446;41.490;22.098;2023-03-16T05:24:44;5.40;;;3.00;;
70825;SDS011;58446;41.490;22.098;2023-03-16T05:27:09;4.68;;;2.65;;
70825;SDS011;58446;41.490;22.098;2023-03-16T05:29:35;5.37;;;3.10;;
70825;SDS011;58446;41.490;22.098;2023-03-16T05:32:00;4.40;;;2.78;;
70825;SDS011;58446;41.490;22.098;2023-03-16T05:34:26;4.27;;;2.80;;
70825;SDS011;58446;41.490;22.098;2023-03-16T05:36:52;4.72;;;3.03;;
70825;SDS011;58446;41.490;22.098;2023-03-16T05:39:17;4.30;;;2.50;;
70825;SDS011;58446;41.490;22.098;2023-03-16T05:41:43;6.20;;;3.03;;
70825;SDS011;58446;41.490;22.098;2023-03-16T05:44:09;4.40;;;2.93;;
70825;SDS011;58446;41.490;22.098;2023-03-16T05:46:34;4.10;;;2.40;;
70825;SDS011;58446;41.490;22.098;2023-03-16T05:49:00;4.70;;;2.45;;
70825;SDS011;58446;41.490;22.098;2023-03-16T05:51:26;4.80;;;3.13;;
70825;SDS011;58446;41.490;22.098;2023-03-16T05:53:52;5.50;;;3.05;;
70825;SDS011;58446;41.490;22.098;2023-03-16T05:56:23;4.35;;;2.55;;
70825;SDS011;58446;41.490;22.098;2023-03-16T05:58:53;4.63;;;2.90;;
70825;SDS011;58446;41.490;22.098;2023-03-16T06:01:20;4.53;;;2.70;;
70825;SDS011;58446;41.490;22.098;2023-03-16T06:03:46;5.17;;;3.40;;
70825;SDS011;58446;41.490;22.098;2023-03-16T06:06:14;4.55;;;2.20;;
70825;SDS011;58446;41.490;22.098;2023-03-16T06:08:41;4.50;;;2.28;;
70825;SDS011;58446;41.490;22.098;2023-03-16T06:11:07;13.68;;;8.63;;
70825;SDS011;58446;41.490;22.098;2023-03-16T06:13:33;16.15;;;11.55;;
70825;SDS011;58446;41.490;22.098;2023-03-16T06:15:59;8.23;;;5.53;;
70825;SDS011;58446;41.490;22.098;2023-03-16T06:18:25;8.18;;;7.18;;
70825;SDS011;58446;41.490;22.098;2023-03-16T06:20:51;9.68;;;6.03;;
70825;SDS011;58446;41.490;22.098;2023-03-16T06:23:17;5.47;;;3.47;;
70825;SDS011;58446;41.490;22.098;2023-03-16T06:25:47;7.10;;;4.10;;
70825;SDS011;58446;41.490;22.098;2023-03-16T06:28:13;6.38;;;4.47;;
70825;SDS011;58446;41.490;22.098;2023-03-16T06:30:39;13.63;;;8.93;;
70825;SDS011;58446;41.490;22.098;2023-03-16T06:33:05;8.77;;;6.03;;
70825;SDS011;58446;41.490;22.098;2023-03-16T06:35:31;8.38;;;6.03;;
70825;SDS011;58446;41.490;22.098;2023-03-16T06:37:56;7.47;;;5.93;;
70825;SDS011;58446;41.490;22.098;2023-03-16T06:40:22;5.53;;;3.70;;
70825;SDS011;58446;41.490;22.098;2023-03-16T06:42:48;7.03;;;4.90;;
70825;SDS011;58446;41.490;22.098;2023-03-16T06:45:14;8.35;;;6.45;;
70825;SDS011;58446;41.490;22.098;2023-03-16T06:47:41;11.00;;;9.32;;
70825;SDS011;58446;41.490;22.098;2023-03-16T06:50:07;7.57;;;5.80;;
70825;SDS011;58446;41.490;22.098;2023-03-16T06:52:34;6.72;;;5.88;;
70825;SDS011;58446;41.490;22.098;2023-03-16T06:55:00;8.00;;;4.50;;
70825;SDS011;58446;41.490;22.098;2023-03-16T06:57:26;5.50;;;3.40;;
70825;SDS011;58446;41.490;22.098;2023-03-16T06:59:51;6.00;;;3.47;;
70825;SDS011;58446;41.490;22.098;2023-03-16T07:02:17;5.77;;;3.40;;
70825;SDS011;58446;41.490;22.098;2023-03-16T07:04:44;5.78;;;4.07;;
70825;SDS011;58446;41.490;22.098;2023-03-16T07:07:10;5.10;;;3.50;;
70825;SDS011;58446;41.490;22.098;2023-03-16T07:09:36;5.03;;;3.25;;
70825;SDS011;58446;41.490;22.098;2023-03-16T07:12:02;5.93;;;3.63;;
70825;SDS011;58446;41.490;22.098;2023-03-16T07:14:28;8.77;;;4.88;;
70825;SDS011;58446;41.490;22.098;2023-03-16T07:16:54;5.50;;;3.90;;
70825;SDS011;58446;41.490;22.098;2023-03-16T07:19:20;5.30;;;3.30;;
70825;SDS011;58446;41.490;22.098;2023-03-16T07:21:47;5.40;;;3.53;;
70825;SDS011;58446;41.490;22.098;2023-03-16T07:24:13;5.32;;;3.67;;
70825;SDS011;58446;41.490;22.098;2023-03-16T07:26:40;12.45;;;8.00;;
70825;SDS011;58446;41.490;22.098;2023-03-16T07:29:07;7.20;;;4.22;;
70825;SDS011;58446;41.490;22.098;2023-03-16T07:31:33;4.33;;;2.40;;
70825;SDS011;58446;41.490;22.098;2023-03-16T07:33:59;5.40;;;3.42;;
70825;SDS011;58446;41.490;22.098;2023-03-16T07:36:26;6.22;;;4.50;;
70825;SDS011;58446;41.490;22.098;2023-03-16T07:38:52;6.38;;;4.38;;
70825;SDS011;58446;41.490;22.098;2023-03-16T07:41:18;7.33;;;4.40;;
70825;SDS011;58446;41.490;22.098;2023-03-16T07:43:44;5.43;;;3.97;;
70825;SDS011;58446;41.490;22.098;2023-03-16T07:46:10;6.43;;;4.00;;
70825;SDS011;58446;41.490;22.098;2023-03-16T07:48:40;5.40;;;3.50;;
70825;SDS011;58446;41.490;22.098;2023-03-16T07:51:07;6.47;;;3.67;;
70825;SDS011;58446;41.490;22.098;2023-03-16T07:53:33;7.05;;;5.00;;
70825;SDS011;58446;41.490;22.098;2023-03-16T07:56:00;5.75;;;4.03;;
70825;SDS011;58446;41.490;22.098;2023-03-16T07:58:26;6.67;;;4.00;;
70825;SDS011;58446;41.490;22.098;2023-03-16T08:00:58;5.97;;;3.97;;
70825;SDS011;58446;41.490;22.098;2023-03-16T08:03:26;7.00;;;4.53;;
70825;SDS011;58446;41.490;22.098;2023-03-16T08:05:53;6.90;;;4.90;;
70825;SDS011;58446;41.490;22.098;2023-03-16T08:08:19;5.55;;;3.88;;
70825;SDS011;58446;41.490;22.098;2023-03-16T08:10:47;8.10;;;5.40;;
70825;SDS011;58446;41.490;22.098;2023-03-16T08:13:13;11.05;;;6.00;;
70825;SDS011;58446;41.490;22.098;2023-03-16T08:15:39;6.43;;;4.27;;
70825;SDS011;58446;41.490;22.098;2023-03-16T08:18:05;8.38;;;5.20;;
70825;SDS011;58446;41.490;22.098;2023-03-16T08:20:31;7.93;;;5.80;;
70825;SDS011;58446;41.490;22.098;2023-03-16T08:22:58;8.95;;;6.15;;
70825;SDS011;58446;41.490;22.098;2023-03-16T08:25:23;7.68;;;5.57;;
70825;SDS011;58446;41.490;22.098;2023-03-16T08:27:50;6.82;;;4.68;;
70825;SDS011;58446;41.490;22.098;2023-03-16T08:30:17;5.73;;;3.70;;
70825;SDS011;58446;41.490;22.098;2023-03-16T08:32:43;5.40;;;3.40;;
70825;SDS011;58446;41.490;22.098;2023-03-16T08:35:10;5.50;;;3.75;;
70825;SDS011;58446;41.490;22.098;2023-03-16T08:37:40;5.53;;;3.67;;
70825;SDS011;58446;41.490;22.098;2023-03-16T08:40:07;5.65;;;3.35;;
70825;SDS011;58446;41.490;22.098;2023-03-16T08:42:39;5.60;;;4.00;;
70825;SDS011;58446;41.490;22.098;2023-03-16T08:45:05;4.57;;;2.78;;
70825;SDS011;58446;41.490;22.098;2023-03-16T08:47:37;8.00;;;4.07;;
70825;SDS011;58446;41.490;22.098;2023-03-16T08:50:04;5.88;;;2.85;;
70825;SDS011;58446;41.490;22.098;2023-03-16T08:52:34;6.30;;;3.63;;
70825;SDS011;58446;41.490;22.098;2023-03-16T08:55:01;6.50;;;4.25;;
70825;SDS011;58446;41.490;22.098;2023-03-16T08:57:29;6.32;;;4.35;;
70825;SDS011;58446;41.490;22.098;2023-03-16T08:59:57;10.33;;;8.10;;
70825;SDS011;58446;41.490;22.098;2023-03-16T09:02:23;10.25;;;7.10;;
70825;SDS011;58446;41.490;22.098;2023-03-16T09:04:49;7.60;;;4.65;;
70825;SDS011;58446;41.490;22.098;2023-03-16T09:07:16;6.38;;;4.30;;
70825;SDS011;58446;41.490;22.098;2023-03-16T09:09:43;5.95;;;3.92;;
70825;SDS011;58446;41.490;22.098;2023-03-16T09:12:09;7.53;;;5.37;;
70825;SDS011;58446;41.490;22.098;2023-03-16T09:14:36;5.43;;;3.55;;
70825;SDS011;58446;41.490;22.098;2023-03-16T09:17:02;9.75;;;6.20;;
70825;SDS011;58446;41.490;22.098;2023-03-16T09:19:29;7.15;;;4.15;;
70825;SDS011;58446;41.490;22.098;2023-03-16T09:21:57;7.25;;;4.75;;
70825;SDS011;58446;41.490;22.098;2023-03-16T09:24:23;14.10;;;8.53;;
70825;SDS011;58446;41.490;22.098;2023-03-16T09:26:50;8.23;;;6.03;;
70825;SDS011;58446;41.490;22.098;2023-03-16T09:29:16;6.68;;;4.80;;
70825;SDS011;58446;41.490;22.098;2023-03-16T09:31:43;7.17;;;4.20;;
70825;SDS011;58446;41.490;22.098;2023-03-16T09:34:09;6.90;;;4.15;;
70825;SDS011;58446;41.490;22.098;2023-03-16T09:36:35;13.43;;;8.10;;
70825;SDS011;58446;41.490;22.098;2023-03-16T09:39:02;11.93;;;6.00;;
70825;SDS011;58446;41.490;22.098;2023-03-16T09:42:11;9.75;;;5.80;;
70825;SDS011;58446;41.490;22.098;2023-03-16T09:44:45;7.37;;;3.77;;
70825;SDS011;58446;41.490;22.098;2023-03-16T09:47:36;10.60;;;5.20;;
70825;SDS011;58446;41.490;22.098;2023-03-16T09:50:05;8.80;;;5.10;;
70825;SDS011;58446;41.490;22.098;2023-03-16T09:55:28;10.57;;;7.18;;
70825;SDS011;58446;41.490;22.098;2023-03-16T09:57:57;8.63;;;5.57;;
70825;SDS011;58446;41.490;22.098;2023-03-16T10:00:24;50.10;;;20.60;;
70825;SDS011;58446;41.490;22.098;2023-03-16T10:05:35;19.48;;;10.27;;
70825;SDS011;58446;41.490;22.098;2023-03-16T10:08:07;9.85;;;5.40;;
70825;SDS011;58446;41.490;22.098;2023-03-16T10:13:46;8.05;;;5.30;;
70825;SDS011;58446;41.490;22.098;2023-03-16T10:16:38;7.30;;;4.63;;
70825;SDS011;58446;41.490;22.098;2023-03-16T10:21:53;10.80;;;7.65;;
70825;SDS011;58446;41.490;22.098;2023-03-16T10:24:31;9.93;;;6.67;;
70825;SDS011;58446;41.490;22.098;2023-03-16T10:27:23;7.25;;;4.30;;
70825;SDS011;58446;41.490;22.098;2023-03-16T10:29:53;6.30;;;4.07;;
70825;SDS011;58446;41.490;22.098;2023-03-16T10:32:20;9.52;;;6.82;;
70825;SDS011;58446;41.490;22.098;2023-03-16T10:34:52;7.35;;;4.03;;
70825;SDS011;58446;41.490;22.098;2023-03-16T10:37:23;10.27;;;7.30;;
70825;SDS011;58446;41.490;22.098;2023-03-16T10:39:51;8.32;;;5.00;;
70825;SDS011;58446;41.490;22.098;2023-03-16T10:42:18;7.05;;;4.65;;
70825;SDS011;58446;41.490;22.098;2023-03-16T10:44:45;5.60;;;3.60;;
70825;SDS011;58446;41.490;22.098;2023-03-16T10:47:20;5.90;;;3.90;;
70825;SDS011;58446;41.490;22.098;2023-03-16T10:49:48;6.10;;;4.05;;
70825;SDS011;58446;41.490;22.098;2023-03-16T10:54:58;5.78;;;3.30;;
70825;SDS011;58446;41.490;22.098;2023-03-16T10:57:28;6.18;;;4.50;;
70825;SDS011;58446;41.490;22.098;2023-03-16T11:02:55;5.35;;;3.78;;
70825;SDS011;58446;41.490;22.098;2023-03-16T11:05:31;5.38;;;4.28;;
70825;SDS011;58446;41.490;22.098;2023-03-16T11:10:30;5.43;;;3.97;;
70825;SDS011;58446;41.490;22.098;2023-03-16T11:13:17;6.67;;;4.47;;
70825;SDS011;58446;41.490;22.098;2023-03-16T11:15:46;7.82;;;4.50;;
70825;SDS011;58446;41.490;22.098;2023-03-16T11:18:26;6.03;;;4.25;;
70825;SDS011;58446;41.490;22.098;2023-03-16T11:20:55;5.40;;;3.38;;
70825;SDS011;58446;41.490;22.098;2023-03-16T11:23:28;6.20;;;4.57;;
70825;SDS011;58446;41.490;22.098;2023-03-16T11:25:57;5.57;;;3.87;;
70825;SDS011;58446;41.490;22.098;2023-03-16T11:30:59;5.43;;;3.37;;
70825;SDS011;58446;41.490;22.098;2023-03-16T11:33:40;5.30;;;3.30;;
70825;SDS011;58446;41.490;22.098;2023-03-16T11:36:11;5.65;;;3.67;;
70825;SDS011;58446;41.490;22.098;2023-03-16T11:42:14;5.82;;;4.07;;
70825;SDS011;58446;41.490;22.098;2023-03-16T11:50:21;8.13;;;4.40;;
70825;SDS011;58446;41.490;22.098;2023-03-16T11:58:47;6.33;;;4.50;;
70825;SDS011;58446;41.490;22.098;2023-03-16T12:17:54;6.20;;;4.18;;
70825;SDS011;58446;41.490;22.098;2023-03-16T12:20:33;8.63;;;5.32;;
70825;SDS011;58446;41.490;22.098;2023-03-16T12:23:10;8.90;;;6.03;;
70825;SDS011;58446;41.490;22.098;2023-03-16T12:25:39;7.67;;;4.97;;
70825;SDS011;58446;41.490;22.098;2023-03-16T12:28:13;7.40;;;4.80;;
70825;SDS011;58446;41.490;22.098;2023-03-16T12:33:21;9.27;;;6.13;;
70825;SDS011;58446;41.490;22.098;2023-03-16T12:41:51;7.13;;;5.10;;
70825;SDS011;58446;41.490;22.098;2023-03-16T12:44:18;8.88;;;5.70;;
70825;SDS011;58446;41.490;22.098;2023-03-16T12:46:55;8.77;;;5.40;;
70825;SDS011;58446;41.490;22.098;2023-03-16T12:49:23;7.10;;;5.22;;
70825;SDS011;58446;41.490;22.098;2023-03-16T12:52:00;7.27;;;5.47;;
70825;SDS011;58446;41.490;22.098;2023-03-16T12:54:28;7.35;;;5.05;;
70825;SDS011;58446;41.490;22.098;2023-03-16T12:57:02;6.78;;;5.05;;
70825;SDS011;58446;41.490;22.098;2023-03-16T12:59:40;7.95;;;5.45;;
70825;SDS011;58446;41.490;22.098;2023-03-16T13:02:13;9.10;;;6.63;;
70825;SDS011;58446;41.490;22.098;2023-03-16T13:04:45;9.80;;;7.60;;
70825;SDS011;58446;41.490;22.098;2023-03-16T13:07:20;8.40;;;5.60;;
70825;SDS011;58446;41.490;22.098;2023-03-16T13:09:53;8.38;;;5.60;;
70825;SDS011;58446;41.490;22.098;2023-03-16T13:12:30;8.95;;;5.50;;
70825;SDS011;58446;41.490;22.098;2023-03-16T13:15:01;7.72;;;5.13;;
70825;SDS011;58446;41.490;22.098;2023-03-16T13:17:41;8.33;;;7.10;;
70825;SDS011;58446;41.490;22.098;2023-03-16T13:22:51;8.85;;;6.40;;
70825;SDS011;58446;41.490;22.098;2023-03-16T13:25:43;10.00;;;6.95;;
70825;SDS011;58446;41.490;22.098;2023-03-16T13:28:19;8.95;;;5.80;;
70825;SDS011;58446;41.490;22.098;2023-03-16T13:30:53;6.90;;;5.57;;
70825;SDS011;58446;41.490;22.098;2023-03-16T13:33:22;8.10;;;5.68;;
70825;SDS011;58446;41.490;22.098;2023-03-16T13:35:52;11.30;;;6.78;;
70825;SDS011;58446;41.490;22.098;2023-03-16T13:38:22;9.53;;;5.93;;
70825;SDS011;58446;41.490;22.098;2023-03-16T13:41:02;8.38;;;6.07;;
70825;SDS011;58446;41.490;22.098;2023-03-16T13:43:33;8.63;;;6.43;;
70825;SDS011;58446;41.490;22.098;2023-03-16T13:46:13;9.10;;;5.65;;
70825;SDS011;58446;41.490;22.098;2023-03-16T13:48:41;8.93;;;6.32;;
70825;SDS011;58446;41.490;22.098;2023-03-16T13:51:16;9.90;;;6.30;;
70825;SDS011;58446;41.490;22.098;2023-03-16T13:53:44;8.05;;;5.63;;
70825;SDS011;58446;41.490;22.098;2023-03-16T13:56:12;11.85;;;8.52;;
70825;SDS011;58446;41.490;22.098;2023-03-16T13:58:42;9.27;;;6.25;;
70825;SDS011;58446;41.490;22.098;2023-03-16T14:01:18;12.60;;;7.90;;
70825;SDS011;58446;41.490;22.098;2023-03-16T14:03:49;9.13;;;6.63;;
70825;SDS011;58446;41.490;22.098;2023-03-16T14:06:17;9.52;;;6.88;;
70825;SDS011;58446;41.490;22.098;2023-03-16T14:08:48;9.93;;;6.43;;
70825;SDS011;58446;41.490;22.098;2023-03-16T14:11:17;7.82;;;5.70;;
70825;SDS011;58446;41.490;22.098;2023-03-16T14:13:48;10.33;;;6.17;;
70825;SDS011;58446;41.490;22.098;2023-03-16T14:16:17;12.18;;;7.50;;
70825;SDS011;58446;41.490;22.098;2023-03-16T14:18:45;9.75;;;6.72;;
70825;SDS011;58446;41.490;22.098;2023-03-16T14:21:16;9.30;;;6.95;;
70825;SDS011;58446;41.490;22.098;2023-03-16T14:23:46;12.80;;;8.27;;
70825;SDS011;58446;41.490;22.098;2023-03-16T14:26:16;12.40;;;8.70;;
70825;SDS011;58446;41.490;22.098;2023-03-16T14:28:56;8.50;;;5.97;;
70825;SDS011;58446;41.490;22.098;2023-03-16T14:31:31;9.07;;;6.70;;
70825;SDS011;58446;41.490;22.098;2023-03-16T14:34:01;10.15;;;7.75;;
70825;SDS011;58446;41.490;22.098;2023-03-16T14:36:36;9.93;;;6.72;;
70825;SDS011;58446;41.490;22.098;2023-03-16T14:39:12;9.77;;;6.20;;
70825;SDS011;58446;41.490;22.098;2023-03-16T14:41:41;10.52;;;7.47;;
70825;SDS011;58446;41.490;22.098;2023-03-16T14:44:27;8.60;;;7.07;;
70825;SDS011;58446;41.490;22.098;2023-03-16T14:46:56;8.38;;;5.57;;
70825;SDS011;58446;41.490;22.098;2023-03-16T14:49:25;9.52;;;7.43;;
70825;SDS011;58446;41.490;22.098;2023-03-16T14:51:59;10.23;;;5.93;;
70825;SDS011;58446;41.490;22.098;2023-03-16T14:54:27;11.00;;;7.22;;
70825;SDS011;58446;41.490;22.098;2023-03-16T14:57:00;10.55;;;7.20;;
70825;SDS011;58446;41.490;22.098;2023-03-16T14:59:29;9.25;;;7.03;;
70825;SDS011;58446;41.490;22.098;2023-03-16T15:01:56;10.15;;;7.68;;
70825;SDS011;58446;41.490;22.098;2023-03-16T15:04:27;10.33;;;6.83;;
70825;SDS011;58446;41.490;22.098;2023-03-16T15:06:56;11.88;;;7.20;;
70825;SDS011;58446;41.490;22.098;2023-03-16T15:09:26;11.88;;;7.47;;
70825;SDS011;58446;41.490;22.098;2023-03-16T15:11:55;12.15;;;8.32;;
70825;SDS011;58446;41.490;22.098;2023-03-16T15:14:22;11.18;;;8.30;;
70825;SDS011;58446;41.490;22.098;2023-03-16T15:17:06;12.53;;;9.10;;
70825;SDS011;58446;41.490;22.098;2023-03-16T15:19:33;11.75;;;7.85;;
70825;SDS011;58446;41.490;22.098;2023-03-16T15:21:59;10.00;;;7.20;;
70825;SDS011;58446;41.490;22.098;2023-03-16T15:24:27;9.35;;;5.90;;
70825;SDS011;58446;41.490;22.098;2023-03-16T15:26:54;10.93;;;7.13;;
70825;SDS011;58446;41.490;22.098;2023-03-16T15:29:20;11.90;;;6.97;;
70825;SDS011;58446;41.490;22.098;2023-03-16T15:31:46;9.60;;;6.68;;
70825;SDS011;58446;41.490;22.098;2023-03-16T15:34:12;13.10;;;7.27;;
70825;SDS011;58446;41.490;22.098;2023-03-16T15:36:37;22.02;;;14.32;;
70825;SDS011;58446;41.490;22.098;2023-03-16T15:39:03;13.57;;;9.40;;
70825;SDS011;58446;41.490;22.098;2023-03-16T15:41:30;13.48;;;8.95;;
70825;SDS011;58446;41.490;22.098;2023-03-16T15:43:56;25.13;;;15.00;;
70825;SDS011;58446;41.490;22.098;2023-03-16T15:46:25;13.05;;;8.20;;
70825;SDS011;58446;41.490;22.098;2023-03-16T15:48:52;20.97;;;12.43;;
70825;SDS011;58446;41.490;22.098;2023-03-16T15:53:55;10.57;;;7.63;;
70825;SDS011;58446;41.490;22.098;2023-03-16T15:56:24;12.10;;;9.17;;
70825;SDS011;58446;41.490;22.098;2023-03-16T15:58:54;11.95;;;8.70;;